Time;durP1;ratioP1;P1;durP2;ratioP2;P2;SDS_P1;SDS_P2;PMS_P1;PMS_P2;Temp;Humidity;BMP_temperature;BMP_pressure;BME280_temperature;BME280_humidity;BME280_pressure;Samples;Min_cycle;Max_cycle;Signal;HPM_P1;HPM_P2
2022/10/23 00:00:16;;;;;;;11.55;5.60;;;15.30;91.40;;;;;;4984090;28;20440;-78
2022/10/23 00:02:41;;;;;;;8.40;5.00;;;15.30;91.10;;;;;;4985544;28;20122;-79
2022/10/23 00:05:07;;;;;;;9.43;5.43;;;15.30;91.20;;;;;;4982506;28;20097;-78
2022/10/23 00:07:34;;;;;;;8.73;3.35;;;15.30;91.10;;;;;;4990537;28;20113;-76
2022/10/23 00:09:59;;;;;;;9.02;4.25;;;15.30;91.10;;;;;;4992282;28;20040;-78
2022/10/23 00:12:27;;;;;;;10.07;5.93;;;15.30;90.80;;;;;;4980826;28;20018;-78
2022/10/23 00:14:52;;;;;;;9.65;5.22;;;15.30;91.00;;;;;;4990460;28;20058;-78
2022/10/23 00:17:18;;;;;;;9.25;4.97;;;15.20;90.90;;;;;;4989865;28;20480;-78
2022/10/23 00:19:43;;;;;;;8.93;4.50;;;15.20;91.10;;;;;;4989996;28;20416;-76
2022/10/23 00:22:10;;;;;;;10.35;4.43;;;15.20;91.20;;;;;;4990346;28;20384;-77
2022/10/23 00:24:35;;;;;;;8.10;4.10;;;15.20;91.20;;;;;;4989505;28;20027;-77
2022/10/23 00:27:02;;;;;;;9.57;5.30;;;15.20;91.20;;;;;;4991240;28;20030;-78
2022/10/23 00:29:28;;;;;;;12.20;6.38;;;15.20;91.20;;;;;;4989016;28;20021;-78
2022/10/23 00:31:54;;;;;;;10.00;5.13;;;15.20;91.30;;;;;;4989287;28;20508;-77
2022/10/23 00:34:20;;;;;;;7.90;4.20;;;15.20;91.20;;;;;;4990064;28;20033;-78
2022/10/23 00:36:45;;;;;;;10.13;4.43;;;15.10;90.90;;;;;;4991216;28;20084;-77
2022/10/23 00:39:11;;;;;;;7.70;4.65;;;15.10;90.70;;;;;;4990733;28;20015;-77
2022/10/23 00:41:37;;;;;;;6.93;4.38;;;15.10;90.80;;;;;;4991199;28;20039;-79
2022/10/23 00:44:30;;;;;;;13.10;5.80;;;15.10;90.80;;;;;;4991069;28;20022;-78
2022/10/23 00:46:58;;;;;;;16.15;7.38;;;15.00;91.00;;;;;;4981133;28;20026;-76
2022/10/23 00:49:24;;;;;;;13.23;5.50;;;15.00;90.90;;;;;;4989213;28;20019;-76
2022/10/23 00:52:00;;;;;;;13.93;7.47;;;15.00;90.90;;;;;;4989276;28;20030;-76
2022/10/23 00:54:31;;;;;;;13.25;4.55;;;15.00;91.30;;;;;;4989658;28;20076;-77
2022/10/23 00:57:00;;;;;;;10.50;3.38;;;15.00;90.10;;;;;;4990204;28;20029;-77
2022/10/23 00:59:27;;;;;;;13.30;5.78;;;15.00;90.00;;;;;;4988489;28;20121;-78
2022/10/23 01:01:53;;;;;;;15.25;7.63;;;15.00;89.40;;;;;;4990619;28;20034;-78
2022/10/23 01:04:19;;;;;;;11.65;6.10;;;14.90;90.40;;;;;;4988275;28;20030;-78
2022/10/23 01:07:13;;;;;;;11.30;4.65;;;15.00;90.90;;;;;;4990234;28;20037;-77
2022/10/23 01:09:48;;;;;;;17.60;8.98;;;15.00;90.20;;;;;;4979750;28;20076;-76
2022/10/23 01:12:18;;;;;;;12.27;5.72;;;15.00;91.30;;;;;;4989556;28;20030;-79
2022/10/23 01:14:53;;;;;;;14.05;6.07;;;15.00;91.20;;;;;;4988644;28;20582;-77
2022/10/23 01:17:25;;;;;;;12.50;6.20;;;15.00;91.30;;;;;;4989917;28;20030;-78
2022/10/23 01:20:33;;;;;;;11.43;5.65;;;15.00;91.50;;;;;;4988487;28;20041;-77
2022/10/23 01:23:21;;;;;;;10.88;5.43;;;14.90;91.40;;;;;;4976119;28;20121;-77
2022/10/23 01:26:28;;;;;;;9.75;4.35;;;15.00;91.50;;;;;;4990764;28;20026;-78
2022/10/23 01:29:13;;;;;;;13.60;7.22;;;15.00;90.60;;;;;;4971785;28;20022;-76
2022/10/23 01:31:46;;;;;;;7.10;3.80;;;15.00;90.70;;;;;;4989562;28;20026;-75
2022/10/23 01:34:17;;;;;;;13.20;5.75;;;15.00;90.50;;;;;;4990053;28;20022;-77
2022/10/23 01:36:45;;;;;;;;;;;15.10;91.00;;;;;;4990438;28;20534;-78
2022/10/23 01:39:18;;;;;;;10.07;3.50;;;15.10;91.20;;;;;;4991720;28;20000;-75
2022/10/23 01:41:45;;;;;;;12.05;7.28;;;15.10;90.20;;;;;;4992611;28;20050;-78
2022/10/23 01:44:29;;;;;;;12.45;5.43;;;15.10;90.80;;;;;;4992323;28;20077;-77
2022/10/23 01:46:57;;;;;;;10.82;5.65;;;15.10;90.50;;;;;;4989606;28;20039;-76
2022/10/23 01:49:23;;;;;;;8.35;4.38;;;15.10;90.90;;;;;;4988483;28;20030;-77
2022/10/23 01:51:56;;;;;;;8.90;4.00;;;15.10;90.60;;;;;;4992779;28;20034;-76
2022/10/23 01:54:28;;;;;;;9.73;4.32;;;15.00;90.40;;;;;;4984223;28;20022;-77
2022/10/23 01:56:56;;;;;;;13.65;5.60;;;15.00;90.30;;;;;;4992997;28;20106;-78
2022/10/23 01:59:27;;;;;;;8.80;5.70;;;15.00;90.60;;;;;;4990884;28;20027;-78
2022/10/23 02:01:56;;;;;;;10.07;5.30;;;15.00;90.80;;;;;;4992673;28;20038;-78
2022/10/23 02:04:32;;;;;;;11.25;5.55;;;15.00;90.70;;;;;;4991868;28;20164;-77
2022/10/23 02:06:58;;;;;;;10.15;5.97;;;15.00;91.00;;;;;;4990983;28;20026;-76
2022/10/23 02:09:24;;;;;;;12.07;7.65;;;15.00;91.10;;;;;;4992341;28;20038;-77
2022/10/23 02:12:01;;;;;;;15.75;8.20;;;15.00;91.20;;;;;;4992921;28;20861;-75
2022/10/23 02:14:43;;;;;;;14.07;8.23;;;15.00;91.40;;;;;;4992568;28;20579;-79
2022/10/23 02:17:26;;;;;;;11.45;6.93;;;15.00;91.50;;;;;;4997085;28;20030;-78
2022/10/23 02:20:21;;;;;;;11.75;7.15;;;15.00;91.40;;;;;;4992043;28;20037;-76
2022/10/23 02:23:19;;;;;;;13.73;6.40;;;14.90;91.50;;;;;;4993474;28;20093;-77
2022/10/23 02:25:52;;;;;;;10.02;5.10;;;14.90;91.60;;;;;;4991850;28;20026;-77
2022/10/23 02:28:25;;;;;;;8.98;4.80;;;14.90;91.50;;;;;;4992192;28;20110;-77
2022/10/23 02:30:54;;;;;;;10.85;5.95;;;14.80;91.30;;;;;;4991406;28;20101;-75
2022/10/23 02:33:19;;;;;;;11.00;5.43;;;14.80;91.50;;;;;;4991381;28;20019;-77
2022/10/23 02:35:47;;;;;;;10.65;5.60;;;14.80;91.10;;;;;;4995394;28;20034;-78
2022/10/23 02:38:40;;;;;;;7.63;5.35;;;14.80;91.30;;;;;;4993958;28;20184;-78
2022/10/23 02:41:45;;;;;;;13.07;7.38;;;14.70;91.20;;;;;;4993034;28;20419;-77
2022/10/23 02:44:39;;;;;;;15.80;9.23;;;14.70;91.50;;;;;;4973028;28;20041;-79
2022/10/23 02:47:52;;;;;;;10.32;4.30;;;14.70;91.60;;;;;;4994774;28;20029;-77
2022/10/23 02:50:45;;;;;;;13.80;7.95;;;14.70;91.20;;;;;;4924142;29;20160;-77
2022/10/23 02:53:22;;;;;;;13.70;7.63;;;14.60;91.60;;;;;;4990851;28;20022;-78
2022/10/23 02:56:09;;;;;;;12.07;6.10;;;14.60;91.40;;;;;;4998418;28;20049;-78
2022/10/23 02:58:48;;;;;;;12.60;8.43;;;14.50;91.50;;;;;;4998953;28;20038;-77
2022/10/23 03:01:25;;;;;;;13.77;7.35;;;14.50;91.40;;;;;;4990613;28;20121;-77
2022/10/23 03:03:54;;;;;;;9.18;5.65;;;14.50;91.60;;;;;;4993975;28;20034;-76
2022/10/23 03:06:21;;;;;;;12.50;6.35;;;14.50;91.30;;;;;;4994661;28;20030;-78
2022/10/23 03:08:56;;;;;;;11.75;6.22;;;14.50;91.40;;;;;;4992491;28;20367;-76
2022/10/23 03:11:22;;;;;;;13.27;7.70;;;14.50;91.50;;;;;;4995032;28;20027;-78
2022/10/23 03:13:47;;;;;;;11.95;6.95;;;14.50;91.70;;;;;;4992993;28;20030;-76
2022/10/23 03:16:13;;;;;;;12.43;6.38;;;14.50;91.70;;;;;;4985820;28;20030;-78
2022/10/23 03:18:38;;;;;;;7.10;4.53;;;14.50;91.70;;;;;;4986372;28;20030;-77
2022/10/23 03:21:04;;;;;;;11.48;6.13;;;14.50;91.60;;;;;;4986269;28;20113;-76
2022/10/23 03:23:29;;;;;;;10.20;5.82;;;14.40;91.60;;;;;;4991507;28;20030;-77
2022/10/23 03:25:55;;;;;;;7.45;4.28;;;14.40;91.80;;;;;;4993561;28;20034;-77
2022/10/23 03:28:21;;;;;;;9.15;5.15;;;14.40;91.50;;;;;;4992658;28;20018;-77
2022/10/23 03:30:47;;;;;;;11.13;5.45;;;14.50;91.60;;;;;;4991700;28;20042;-76
2022/10/23 03:33:13;;;;;;;8.40;5.15;;;14.40;91.60;;;;;;4991526;28;20117;-76
2022/10/23 03:35:39;;;;;;;12.70;7.32;;;14.40;91.60;;;;;;4992682;28;20033;-77
2022/10/23 03:38:04;;;;;;;12.65;6.35;;;14.40;91.60;;;;;;4992019;28;20041;-76
2022/10/23 03:40:30;;;;;;;8.50;5.03;;;14.40;91.60;;;;;;4990908;28;20065;-76
2022/10/23 03:42:57;;;;;;;9.52;4.28;;;14.40;91.70;;;;;;4989999;28;20021;-77
2022/10/23 03:45:23;;;;;;;6.93;3.15;;;14.50;91.30;;;;;;4990814;28;20053;-76
2022/10/23 03:47:50;;;;;;;7.75;4.93;;;14.40;90.80;;;;;;4989971;28;20033;-77
2022/10/23 03:50:17;;;;;;;8.65;4.65;;;14.40;90.90;;;;;;4990575;28;20034;-79
2022/10/23 03:52:51;;;;;;;13.60;7.00;;;14.40;91.20;;;;;;4990974;28;20034;-79
2022/10/23 03:55:17;;;;;;;10.77;4.85;;;14.40;91.50;;;;;;4981615;28;20025;-78
2022/10/23 03:57:43;;;;;;;12.20;5.97;;;14.40;91.40;;;;;;4990574;28;20052;-78
2022/10/23 04:00:09;;;;;;;15.23;6.93;;;14.40;91.40;;;;;;4989354;28;20030;-78
2022/10/23 04:02:35;;;;;;;9.73;5.90;;;14.40;91.60;;;;;;4989708;28;20061;-76
2022/10/23 04:05:01;;;;;;;12.07;6.47;;;14.50;91.70;;;;;;4990678;28;20040;-77
2022/10/23 04:07:27;;;;;;;14.25;6.13;;;14.50;91.80;;;;;;4988240;28;20023;-76
2022/10/23 04:09:52;;;;;;;8.82;5.00;;;14.50;91.80;;;;;;4981196;28;20026;-77
2022/10/23 04:12:18;;;;;;;17.08;7.60;;;14.50;91.90;;;;;;4989642;28;20023;-76
2022/10/23 04:14:44;;;;;;;12.23;6.95;;;14.50;92.10;;;;;;4990481;28;20050;-76
2022/10/23 04:17:09;;;;;;;13.10;6.03;;;14.50;92.20;;;;;;4990852;28;20452;-76
2022/10/23 04:19:35;;;;;;;14.85;6.88;;;14.50;92.00;;;;;;4990480;28;20488;-77
2022/10/23 04:22:01;;;;;;;14.27;6.53;;;14.50;92.00;;;;;;4989701;28;20026;-78
2022/10/23 04:24:26;;;;;;;11.45;6.78;;;14.50;91.60;;;;;;4991398;28;20034;-76
2022/10/23 04:26:52;;;;;;;11.35;6.88;;;14.40;91.90;;;;;;4992403;28;20050;-76
2022/10/23 04:29:21;;;;;;;14.30;7.63;;;14.40;92.10;;;;;;4990666;28;20495;-77
2022/10/23 04:31:47;;;;;;;15.70;7.07;;;14.50;92.30;;;;;;4991371;28;20026;-79
2022/10/23 04:34:12;;;;;;;11.65;5.60;;;14.50;92.40;;;;;;4991356;28;20030;-76
2022/10/23 04:36:38;;;;;;;14.52;6.75;;;14.40;92.40;;;;;;4990119;28;20050;-77
2022/10/23 04:39:04;;;;;;;10.82;7.05;;;14.40;92.50;;;;;;4990038;28;20113;-77
2022/10/23 04:41:31;;;;;;;11.95;6.35;;;14.40;92.60;;;;;;4989786;28;20151;-78
2022/10/23 04:43:56;;;;;;;11.98;4.35;;;14.40;92.70;;;;;;4990472;28;20074;-76
2022/10/23 04:46:22;;;;;;;8.35;4.47;;;14.40;92.40;;;;;;4989491;28;20022;-76
2022/10/23 04:48:48;;;;;;;14.55;6.72;;;14.40;92.30;;;;;;4991761;28;20053;-77
2022/10/23 04:51:13;;;;;;;11.40;6.20;;;14.40;92.00;;;;;;4977899;28;20030;-77
2022/10/23 04:53:40;;;;;;;21.75;5.55;;;14.40;92.20;;;;;;4992251;28;20542;-79
2022/10/23 04:56:06;;;;;;;8.43;5.18;;;14.40;92.10;;;;;;4988030;28;20481;-78
2022/10/23 04:58:31;;;;;;;10.23;5.50;;;14.40;92.10;;;;;;4993985;28;20046;-76
2022/10/23 05:00:58;;;;;;;11.82;6.65;;;14.40;91.90;;;;;;4978063;28;20043;-78
2022/10/23 05:03:26;;;;;;;9.48;4.63;;;14.40;92.10;;;;;;4994303;28;20038;-77
2022/10/23 05:05:54;;;;;;;8.18;5.05;;;14.40;92.20;;;;;;4999401;28;20845;-78
2022/10/23 05:08:21;;;;;;;14.02;5.53;;;14.40;92.20;;;;;;4987717;28;20029;-77
2022/10/23 05:10:48;;;;;;;14.88;5.82;;;14.40;92.40;;;;;;4989365;28;20416;-77
2022/10/23 05:13:18;;;;;;;12.02;5.35;;;14.50;92.60;;;;;;4992060;28;20235;-78
2022/10/23 05:15:46;;;;;;;12.25;4.10;;;14.50;92.60;;;;;;4995267;28;20503;-77
2022/10/23 05:18:44;;;;;;;9.95;4.85;;;14.50;92.60;;;;;;4994637;28;20049;-77
2022/10/23 05:21:18;;;;;;;8.98;4.80;;;14.50;93.00;;;;;;4996084;28;20042;-76
2022/10/23 05:23:44;;;;;;;11.38;5.63;;;14.50;92.70;;;;;;4997489;28;20023;-77
2022/10/23 05:26:12;;;;;;;9.02;4.97;;;14.50;92.90;;;;;;5000047;28;20073;-77
2022/10/23 05:28:38;;;;;;;7.70;3.85;;;14.50;92.80;;;;;;5001212;28;20030;-76
2022/10/23 05:31:05;;;;;;;8.20;5.18;;;14.50;92.60;;;;;;4998470;28;20400;-75
2022/10/23 05:33:31;;;;;;;8.75;4.47;;;14.50;92.60;;;;;;4999255;28;20034;-77
2022/10/23 05:35:59;;;;;;;11.82;4.10;;;14.50;92.90;;;;;;4994620;28;20468;-77
2022/10/23 05:38:28;;;;;;;8.93;4.20;;;14.50;92.50;;;;;;4990903;28;20026;-75
2022/10/23 05:40:54;;;;;;;10.73;4.45;;;14.50;92.10;;;;;;4996303;28;20087;-77
2022/10/23 05:43:20;;;;;;;6.57;3.33;;;14.50;92.50;;;;;;4994255;28;20026;-76
2022/10/23 05:45:47;;;;;;;8.65;4.65;;;14.50;92.00;;;;;;4993091;28;20057;-78
2022/10/23 05:48:16;;;;;;;8.68;4.28;;;14.60;92.30;;;;;;4994897;28;20530;-76
2022/10/23 05:50:42;;;;;;;11.32;5.05;;;14.60;92.20;;;;;;4988572;28;20105;-76
2022/10/23 05:53:12;;;;;;;7.40;3.50;;;14.60;92.60;;;;;;4985075;28;20503;-76
2022/10/23 05:55:38;;;;;;;8.25;4.13;;;14.60;92.20;;;;;;4992932;28;20025;-77
2022/10/23 05:58:04;;;;;;;8.52;4.60;;;14.70;92.50;;;;;;4985521;28;20133;-76
2022/10/23 06:00:30;;;;;;;11.48;4.95;;;14.70;92.60;;;;;;4994006;28;20129;-78
2022/10/23 06:02:59;;;;;;;8.52;4.28;;;14.70;92.60;;;;;;5000396;28;20446;-75
2022/10/23 06:05:24;;;;;;;13.90;5.88;;;14.70;92.60;;;;;;5001069;28;20018;-78
2022/10/23 06:07:50;;;;;;;10.15;4.65;;;14.80;93.20;;;;;;4997049;28;20476;-78
2022/10/23 06:10:15;;;;;;;13.95;5.40;;;14.80;93.00;;;;;;5000861;28;20027;-76
2022/10/23 06:12:41;;;;;;;10.82;5.43;;;14.80;93.00;;;;;;5001908;28;20072;-79
2022/10/23 06:15:07;;;;;;;12.80;6.00;;;14.80;92.50;;;;;;4997180;28;20042;-77
2022/10/23 06:17:34;;;;;;;8.95;4.93;;;14.80;92.60;;;;;;5006659;28;20339;-77
2022/10/23 06:20:01;;;;;;;7.60;3.47;;;14.80;92.30;;;;;;5002268;28;20061;-77
2022/10/23 06:22:28;;;;;;;9.82;4.60;;;14.80;92.40;;;;;;5003994;28;20026;-78
2022/10/23 06:24:54;;;;;;;10.55;5.30;;;14.80;92.30;;;;;;5004123;28;20049;-78
2022/10/23 06:27:19;;;;;;;9.32;3.97;;;14.80;92.60;;;;;;4998357;28;20145;-76
2022/10/23 06:29:45;;;;;;;12.18;5.72;;;14.90;92.60;;;;;;4994742;28;20064;-74
2022/10/23 06:32:11;;;;;;;13.52;4.65;;;15.10;93.30;;;;;;4994774;28;20037;-75
2022/10/23 06:34:37;;;;;;;13.25;5.43;;;15.30;92.90;;;;;;4992515;28;20476;-75
2022/10/23 06:37:02;;;;;;;13.98;5.97;;;15.50;93.00;;;;;;4992069;28;20030;-76
2022/10/23 06:39:28;;;;;;;9.07;4.50;;;15.70;92.90;;;;;;4996617;28;20110;-75
2022/10/23 06:41:54;;;;;;;11.70;4.38;;;15.90;92.50;;;;;;4992487;28;20402;-75
2022/10/23 06:44:19;;;;;;;9.27;5.00;;;16.00;92.40;;;;;;4999305;28;20108;-74
2022/10/23 06:46:46;;;;;;;12.35;4.57;;;16.10;92.30;;;;;;4994949;28;20077;-74
2022/10/23 06:49:13;;;;;;;6.70;4.40;;;16.10;92.30;;;;;;4991471;28;20029;-76
2022/10/23 06:51:40;;;;;;;8.13;3.75;;;16.20;92.30;;;;;;4989781;28;20476;-75
2022/10/23 06:54:05;;;;;;;5.95;3.70;;;16.20;92.30;;;;;;4989229;28;20030;-75
2022/10/23 06:56:31;;;;;;;10.18;4.30;;;16.30;92.30;;;;;;4989797;28;20018;-76
2022/10/23 06:58:57;;;;;;;10.73;5.57;;;16.30;92.20;;;;;;4989519;28;20045;-74
2022/10/23 07:01:22;;;;;;;11.77;4.18;;;16.40;92.00;;;;;;4989826;28;20489;-76
2022/10/23 07:03:48;;;;;;;8.20;3.92;;;16.50;92.00;;;;;;4988348;28;20173;-75
2022/10/23 07:06:14;;;;;;;8.05;4.28;;;16.50;91.90;;;;;;4991717;28;20026;-75
2022/10/23 07:08:40;;;;;;;10.38;4.07;;;16.50;91.70;;;;;;4990501;28;20026;-75
2022/10/23 07:11:07;;;;;;;9.20;3.80;;;16.50;91.60;;;;;;4988585;28;20634;-75
2022/10/23 07:13:34;;;;;;;7.80;4.10;;;16.50;91.70;;;;;;4982452;28;20038;-74
2022/10/23 07:16:14;;;;;;;6.38;3.85;;;16.40;91.50;;;;;;4992109;28;20027;-78
2022/10/23 07:18:40;;;;;;;11.40;4.45;;;16.30;91.60;;;;;;4994976;28;20058;-75
2022/10/23 07:21:06;;;;;;;11.85;5.43;;;16.20;91.60;;;;;;4995522;28;20077;-76
2022/10/23 07:23:31;;;;;;;7.53;3.85;;;16.20;91.60;;;;;;4996147;28;20037;-75
2022/10/23 07:26:16;;;;;;;8.38;4.80;;;16.10;91.70;;;;;;4998416;28;20133;-75
2022/10/23 07:28:46;;;;;;;9.98;4.15;;;16.10;91.70;;;;;;4994825;28;20027;-74
2022/10/23 07:31:12;;;;;;;9.48;3.53;;;16.00;91.80;;;;;;4996868;28;20096;-76
2022/10/23 07:33:37;;;;;;;9.38;3.65;;;16.00;91.60;;;;;;4991571;28;20038;-76
2022/10/23 07:36:05;;;;;;;7.88;4.10;;;16.00;91.30;;;;;;4989116;28;20104;-76
2022/10/23 07:38:31;;;;;;;13.38;4.95;;;15.90;91.60;;;;;;4990003;28;20118;-78
2022/10/23 07:40:58;;;;;;;7.88;3.90;;;16.00;91.30;;;;;;4982635;28;20116;-80
2022/10/23 07:43:24;;;;;;;10.43;4.63;;;16.00;91.00;;;;;;5000461;28;20026;-79
2022/10/23 07:45:51;;;;;;;13.70;5.57;;;15.90;90.90;;;;;;5010160;28;20101;-81
2022/10/23 07:48:17;;;;;;;7.85;3.03;;;15.90;90.90;;;;;;4999919;28;20027;-79
2022/10/23 07:50:43;;;;;;;8.70;3.20;;;15.90;88.80;;;;;;5009125;28;20029;-79
2022/10/23 07:53:24;;;;;;;12.40;3.67;;;15.90;89.60;;;;;;5000607;28;20026;-82
2022/10/23 07:55:53;;;;;;;;;;;15.90;89.90;;;;;;5007997;28;20085;-82
2022/10/23 07:58:18;;;;;;;14.07;5.55;;;15.90;90.60;;;;;;5005310;28;19921;-79
2022/10/23 08:01:01;;;;;;;13.65;6.50;;;15.80;91.10;;;;;;5010266;28;20039;-80
2022/10/23 08:03:28;;;;;;;14.45;5.60;;;15.80;91.50;;;;;;4995998;28;20023;-79
2022/10/23 08:05:56;;;;;;;10.98;4.35;;;15.80;91.80;;;;;;4998261;28;20066;-80
2022/10/23 08:08:23;;;;;;;9.48;4.15;;;15.70;92.00;;;;;;5004401;28;20049;-81
2022/10/23 08:10:50;;;;;;;7.20;3.20;;;15.70;91.20;;;;;;4992611;28;20398;-81
2022/10/23 08:13:19;;;;;;;7.70;2.80;;;15.70;89.60;;;;;;4991405;28;20030;-81
2022/10/23 08:15:46;;;;;;;9.65;4.28;;;15.80;89.20;;;;;;4993097;28;20606;-81
2022/10/23 08:18:14;;;;;;;9.27;4.07;;;15.80;90.00;;;;;;4997598;28;20064;-82
2022/10/23 08:20:42;;;;;;;12.43;4.93;;;15.80;90.20;;;;;;4996260;28;20157;-78
2022/10/23 08:23:08;;;;;;;9.55;5.10;;;15.80;90.20;;;;;;4995340;28;20023;-81
2022/10/23 08:25:34;;;;;;;16.40;7.28;;;15.80;91.20;;;;;;4994479;28;20026;-81
2022/10/23 08:28:00;;;;;;;10.77;6.10;;;15.80;92.00;;;;;;4994464;28;20018;-82
2022/10/23 08:30:26;;;;;;;10.60;5.30;;;15.80;92.00;;;;;;4997203;28;20101;-82
2022/10/23 08:32:53;;;;;;;11.30;5.45;;;15.80;92.50;;;;;;4997587;28;20027;-81
2022/10/23 08:35:20;;;;;;;10.27;5.25;;;15.80;92.60;;;;;;5004403;28;20053;-82
2022/10/23 08:37:45;;;;;;;11.20;3.58;;;15.80;92.90;;;;;;5000816;28;20057;-81
2022/10/23 08:40:17;;;;;;;8.23;4.30;;;15.80;92.10;;;;;;4992774;28;20062;-80
2022/10/23 08:42:52;;;;;;;9.32;4.00;;;15.80;91.40;;;;;;4994491;28;20022;-82
2022/10/23 08:45:39;;;;;;;12.23;6.68;;;15.90;91.90;;;;;;4993327;28;20030;-81
2022/10/23 08:48:32;;;;;;;13.07;6.03;;;15.90;92.50;;;;;;5003705;28;20030;-81
2022/10/23 08:51:25;;;;;;;11.98;5.15;;;15.90;92.50;;;;;;4995962;28;20019;-83
2022/10/23 08:54:01;;;;;;;12.68;5.75;;;16.00;92.20;;;;;;4991955;28;20035;-82
2022/10/23 08:56:33;;;;;;;10.23;3.60;;;16.00;91.90;;;;;;4995073;28;20026;-80
2022/10/23 08:59:04;;;;;;;14.65;6.00;;;16.10;91.60;;;;;;4993662;28;20046;-81
2022/10/23 09:01:57;;;;;;;12.82;5.22;;;16.10;92.00;;;;;;4991466;28;20121;-81
2022/10/23 09:04:28;;;;;;;11.45;5.50;;;16.10;92.10;;;;;;4991355;28;20065;-81
2022/10/23 09:07:25;;;;;;;9.45;4.95;;;16.20;92.30;;;;;;4994341;28;20033;-81
2022/10/23 09:10:10;;;;;;;12.45;3.75;;;16.20;92.00;;;;;;4994840;28;20045;-81
2022/10/23 09:12:38;;;;;;;13.27;4.70;;;16.30;90.20;;;;;;4988536;28;20029;-81
2022/10/23 09:15:23;;;;;;;10.52;3.97;;;16.40;90.00;;;;;;4999837;28;20046;-81
2022/10/23 09:17:58;;;;;;;9.77;3.95;;;16.40;90.30;;;;;;5008145;28;20026;-82
2022/10/23 09:20:27;;;;;;;11.93;4.88;;;16.50;90.70;;;;;;5008572;28;20034;-81
2022/10/23 09:23:22;;;;;;;9.18;4.18;;;16.50;91.50;;;;;;5006945;28;20027;-82
2022/10/23 09:25:54;;;;;;;7.28;4.50;;;16.50;91.20;;;;;;4998989;28;20026;-79
2022/10/23 09:28:25;;;;;;;10.55;4.80;;;16.50;91.20;;;;;;5001747;28;20078;-80
2022/10/23 09:30:51;;;;;;;8.40;3.90;;;16.50;90.70;;;;;;5012477;28;20664;-80
2022/10/23 09:33:21;;;;;;;8.05;3.20;;;16.50;90.90;;;;;;5010101;28;20066;-79
2022/10/23 09:36:18;;;;;;;7.38;3.63;;;16.50;90.40;;;;;;5010062;28;20092;-81
2022/10/23 09:38:53;;;;;;;9.20;3.45;;;16.60;90.10;;;;;;5015530;28;20080;-80
2022/10/23 09:41:26;;;;;;;5.88;2.80;;;16.60;88.70;;;;;;5007028;28;20034;-80
2022/10/23 09:44:19;;;;;;;9.88;4.30;;;16.50;88.80;;;;;;5007298;28;20033;-80
2022/10/23 09:47:21;;;;;;;9.73;4.20;;;16.50;90.00;;;;;;5003065;28;20027;-81
2022/10/23 09:49:50;;;;;;;8.75;3.88;;;16.50;90.80;;;;;;5006078;28;20038;-81
2022/10/23 09:52:24;;;;;;;10.55;4.22;;;16.60;91.50;;;;;;5007965;28;20073;-80
2022/10/23 09:55:24;;;;;;;10.35;4.30;;;16.60;91.10;;;;;;4996966;28;20029;-81
2022/10/23 09:57:51;;;;;;;15.57;5.20;;;16.60;90.40;;;;;;4986755;28;20043;-81
2022/10/23 10:00:19;;;;;;;8.40;4.18;;;16.70;90.30;;;;;;4996374;28;20084;-79
2022/10/23 10:02:58;;;;;;;5.13;2.47;;;16.70;90.20;;;;;;4994852;28;20034;-81
2022/10/23 10:05:25;;;;;;;12.32;5.03;;;16.80;88.60;;;;;;4986504;28;20026;-81
2022/10/23 10:08:09;;;;;;;9.80;3.85;;;16.80;90.70;;;;;;4997742;28;20464;-81
2022/10/23 10:10:40;;;;;;;8.75;3.53;;;16.80;90.20;;;;;;4993861;28;20026;-79
2022/10/23 10:13:32;;;;;;;10.20;4.80;;;16.90;90.60;;;;;;4998689;28;20054;-81
2022/10/23 10:16:30;;;;;;;8.70;3.10;;;16.90;90.30;;;;;;5004094;28;20038;-82
2022/10/23 10:18:59;;;;;;;9.40;3.80;;;17.00;90.30;;;;;;4985151;28;20069;-82
2022/10/23 10:21:40;;;;;;;7.90;3.25;;;17.00;90.60;;;;;;5004116;28;20069;-82
2022/10/23 10:24:35;;;;;;;5.93;3.30;;;17.10;90.70;;;;;;5006769;28;20060;-80
2022/10/23 10:27:21;;;;;;;7.93;3.63;;;17.20;89.90;;;;;;4982065;28;20110;-84
2022/10/23 10:30:08;;;;;;;12.32;4.93;;;17.30;90.30;;;;;;4996206;28;20476;-81
2022/10/23 10:32:45;;;;;;;11.07;3.72;;;17.30;88.50;;;;;;4996102;28;20437;-79
2022/10/23 10:35:25;;;;;;;8.93;3.88;;;17.30;86.80;;;;;;4992925;28;20110;-81
2022/10/23 10:38:28;;;;;;;9.73;3.72;;;17.30;87.40;;;;;;4994954;28;20041;-79
2022/10/23 10:41:09;;;;;;;9.77;3.92;;;17.30;86.10;;;;;;4989824;28;20109;-80
2022/10/23 10:43:42;;;;;;;;;;;17.30;88.40;;;;;;4987667;28;20046;-85
2022/10/23 10:46:35;;;;;;;14.30;4.72;;;17.30;89.10;;;;;;4987047;28;19918;-80
2022/10/23 10:49:06;;;;;;;9.27;3.53;;;17.30;90.00;;;;;;4994070;28;20510;-82
2022/10/23 10:52:00;;;;;;;10.02;3.60;;;17.30;89.10;;;;;;4988015;28;20133;-79
2022/10/23 10:54:38;;;;;;;9.45;3.80;;;17.20;89.20;;;;;;4986955;28;20096;-80
2022/10/23 10:57:15;;;;;;;8.77;4.10;;;17.40;88.00;;;;;;4985646;28;20026;-80
2022/10/23 10:59:45;;;;;;;8.25;3.90;;;17.40;90.30;;;;;;4982763;28;20041;-77
2022/10/23 11:02:24;;;;;;;9.00;4.38;;;17.40;89.40;;;;;;4988761;28;20085;-79
2022/10/23 11:04:57;;;;;;;8.50;3.03;;;17.50;90.20;;;;;;4988152;28;20163;-80
2022/10/23 11:07:29;;;;;;;10.98;4.00;;;17.60;87.20;;;;;;4988765;28;20027;-80
2022/10/23 11:09:57;;;;;;;7.63;3.30;;;17.60;88.90;;;;;;4991440;28;20034;-80
2022/10/23 11:12:26;;;;;;;7.82;3.22;;;17.60;87.10;;;;;;4985389;28;20015;-79
2022/10/23 11:14:52;;;;;;;9.07;3.60;;;17.70;85.80;;;;;;4985954;28;20065;-79
2022/10/23 11:17:24;;;;;;;7.38;3.15;;;17.70;87.60;;;;;;4993526;28;20578;-78
2022/10/23 11:20:13;;;;;;;6.85;3.33;;;17.70;86.50;;;;;;4989251;28;20035;-79
2022/10/23 11:22:51;;;;;;;8.43;3.30;;;17.80;87.20;;;;;;4994418;28;20026;-78
2022/10/23 11:25:20;;;;;;;13.50;4.15;;;17.80;85.90;;;;;;4983094;28;20065;-80
2022/10/23 11:28:13;;;;;;;8.45;2.92;;;17.90;87.40;;;;;;4985827;28;20034;-79
2022/10/23 11:31:00;;;;;;;8.52;3.22;;;17.90;86.80;;;;;;4988106;28;20033;-79
2022/10/23 11:33:35;;;;;;;9.70;3.15;;;17.90;84.00;;;;;;4986976;28;20054;-81
2022/10/23 11:36:17;;;;;;;9.27;3.70;;;18.10;85.10;;;;;;4988056;28;20109;-81
2022/10/23 11:38:46;;;;;;;5.53;2.72;;;18.10;84.10;;;;;;4990789;28;20128;-80
2022/10/23 11:41:49;;;;;;;7.65;3.17;;;18.20;85.00;;;;;;4989971;28;20040;-82
2022/10/23 11:44:42;;;;;;;12.13;3.58;;;18.20;84.70;;;;;;4982007;28;20050;-81
2022/10/23 11:47:29;;;;;;;7.88;2.92;;;18.30;84.70;;;;;;4990631;28;20124;-80
2022/10/23 11:50:06;;;;;;;6.20;2.92;;;18.30;84.90;;;;;;4989384;28;20041;-79
2022/10/23 11:52:38;;;;;;;8.68;3.60;;;18.30;84.90;;;;;;4982636;28;20030;-79
2022/10/23 11:55:16;;;;;;;13.15;4.20;;;18.30;85.80;;;;;;4987551;28;20105;-77
2022/10/23 11:57:45;;;;;;;8.75;3.30;;;18.40;85.40;;;;;;4988684;28;20488;-80
2022/10/23 12:00:20;;;;;;;9.32;3.85;;;18.50;84.50;;;;;;4986076;28;20057;-78
2022/10/23 12:02:51;;;;;;;13.07;3.97;;;18.50;84.50;;;;;;4986936;28;20468;-78
2022/10/23 12:05:36;;;;;;;9.38;3.15;;;18.60;84.00;;;;;;4987397;28;20026;-78
2022/10/23 12:08:04;;;;;;;10.20;3.42;;;18.70;83.10;;;;;;4985946;28;20049;-78
2022/10/23 12:10:42;;;;;;;7.78;3.25;;;18.70;83.80;;;;;;4992090;28;20026;-77
2022/10/23 12:13:40;;;;;;;9.32;3.33;;;18.70;83.40;;;;;;4985158;28;20034;-78
2022/10/23 12:16:06;;;;;;;7.18;3.03;;;18.90;82.40;;;;;;4979680;28;20108;-78
2022/10/23 12:18:32;;;;;;;11.80;3.08;;;19.00;81.80;;;;;;4988218;28;20118;-80
2022/10/23 12:21:03;;;;;;;8.32;3.40;;;19.20;82.10;;;;;;4985433;28;20034;-81
2022/10/23 12:23:50;;;;;;;8.90;2.35;;;19.20;80.70;;;;;;4986478;28;20022;-83
2022/10/23 12:26:19;;;;;;;8.73;3.28;;;19.20;81.00;;;;;;4988864;28;20034;-79
2022/10/23 12:28:58;;;;;;;10.13;3.88;;;19.20;81.90;;;;;;4982575;28;20054;-80
2022/10/23 12:31:45;;;;;;;8.48;3.20;;;19.20;82.30;;;;;;4981077;28;20026;-79
2022/10/23 12:34:27;;;;;;;8.48;2.50;;;19.30;81.50;;;;;;4991489;28;20030;-78
2022/10/23 12:37:48;;;;;;;7.53;2.95;;;19.40;80.70;;;;;;4984858;28;20488;-80
2022/10/23 12:40:14;;;;;;;6.70;2.90;;;19.40;81.00;;;;;;4948606;28;20035;-81
2022/10/23 12:42:40;;;;;;;13.90;3.67;;;19.40;80.70;;;;;;4980246;28;20130;-78
2022/10/23 12:45:19;;;;;;;10.48;3.08;;;19.40;81.80;;;;;;4985951;28;20425;-77
2022/10/23 12:47:46;;;;;;;7.75;3.63;;;19.40;82.50;;;;;;4985334;28;20026;-80
2022/10/23 12:50:23;;;;;;;10.07;3.92;;;19.50;83.00;;;;;;4984120;28;20053;-79
2022/10/23 12:53:01;;;;;;;8.98;3.42;;;19.50;82.50;;;;;;4985918;28;20121;-78
2022/10/23 12:55:46;;;;;;;7.32;2.72;;;19.50;82.90;;;;;;4983719;28;20093;-79
2022/10/23 12:58:28;;;;;;;5.97;2.53;;;19.60;81.00;;;;;;4986439;28;20106;-79
2022/10/23 13:00:58;;;;;;;12.07;3.90;;;19.60;81.30;;;;;;4989716;28;20115;-80
2022/10/23 13:03:27;;;;;;;7.45;2.90;;;19.60;81.30;;;;;;4994912;28;20034;-78
2022/10/23 13:05:57;;;;;;;12.15;3.38;;;19.60;81.00;;;;;;4990544;28;20073;-80
2022/10/23 13:08:31;;;;;;;7.43;2.50;;;19.60;82.20;;;;;;4990965;28;20030;-78
2022/10/23 13:10:57;;;;;;;7.00;2.33;;;19.60;81.30;;;;;;4998981;28;20030;-78